Time;durP1;ratioP1;P1;durP2;ratioP2;P2;SDS_P1;SDS_P2;PMS_P1;PMS_P2;Temp;Humidity;BMP_temperature;BMP_pressure;BME280_temperature;BME280_humidity;BME280_pressure;Samples;Min_cycle;Max_cycle;Signal;HPM_P1;HPM_P2
2024/04/27 00:01:43;;;;;;;3.37;2.80;;;12.50;83.70;;;;;;5460604;26;20466;-49
2024/04/27 00:04:14;;;;;;;2.40;2.20;;;12.50;83.70;;;;;;5470677;26;20441;-48
2024/04/27 00:06:44;;;;;;;3.23;2.30;;;12.50;83.80;;;;;;5459191;26;20508;-47
2024/04/27 00:09:14;;;;;;;2.50;2.30;;;12.50;83.80;;;;;;5458841;26;21074;-47
2024/04/27 00:11:47;;;;;;;2.87;2.67;;;12.50;83.60;;;;;;5458435;26;20457;-48
2024/04/27 00:14:18;;;;;;;2.40;2.20;;;12.50;83.70;;;;;;5470286;26;20462;-48
2024/04/27 00:16:48;;;;;;;4.43;2.53;;;12.50;83.70;;;;;;5469113;26;20544;-47
2024/04/27 00:19:18;;;;;;;3.23;2.90;;;12.50;83.90;;;;;;5450494;26;21056;-47
2024/04/27 00:21:48;;;;;;;2.40;2.20;;;12.50;83.90;;;;;;5473679;26;20523;-47
2024/04/27 00:24:17;;;;;;;2.87;2.67;;;12.50;83.90;;;;;;5470064;26;20544;-47
2024/04/27 00:26:50;;;;;;;3.10;2.80;;;12.50;83.90;;;;;;5457566;26;20455;-48
2024/04/27 00:29:23;;;;;;;2.90;2.70;;;12.50;83.80;;;;;;5450773;26;20575;-48
2024/04/27 00:31:53;;;;;;;2.20;2.00;;;12.50;83.90;;;;;;5457931;26;20519;-48
2024/04/27 00:34:23;;;;;;;2.40;2.00;;;12.50;83.90;;;;;;5476175;26;20818;-48
2024/04/27 00:36:53;;;;;;;2.43;2.23;;;12.50;83.90;;;;;;5450719;26;20439;-48
2024/04/27 00:39:23;;;;;;;2.37;2.17;;;12.50;83.80;;;;;;5454062;26;20459;-48
2024/04/27 00:41:56;;;;;;;4.00;2.13;;;12.50;83.70;;;;;;5450430;26;20579;-48
2024/04/27 00:44:26;;;;;;;2.77;2.47;;;12.50;83.80;;;;;;5464002;26;20517;-50
2024/04/27 00:46:57;;;;;;;3.70;2.40;;;12.50;83.90;;;;;;5454970;26;20455;-49
2024/04/27 00:49:29;;;;;;;2.20;2.00;;;12.50;83.90;;;;;;5410603;26;20503;-48
2024/04/27 00:52:01;;;;;;;1.93;1.80;;;12.50;83.90;;;;;;5446079;26;20574;-48
2024/04/27 00:54:29;;;;;;;2.53;2.33;;;12.50;83.80;;;;;;5469256;26;20540;-47
2024/04/27 00:57:01;;;;;;;2.60;2.23;;;12.50;83.90;;;;;;5464473;26;20509;-48
2024/04/27 00:59:32;;;;;;;3.03;2.50;;;12.50;83.80;;;;;;5461166;26;20471;-47
2024/04/27 01:02:03;;;;;;;1.83;1.70;;;12.50;83.90;;;;;;5452736;26;20455;-48
2024/04/27 01:04:33;;;;;;;2.77;2.30;;;12.50;83.90;;;;;;5423899;26;20451;-48
2024/04/27 01:07:03;;;;;;;2.50;2.30;;;12.50;83.70;;;;;;5473338;26;20455;-49
2024/04/27 01:09:34;;;;;;;2.77;2.40;;;12.50;83.80;;;;;;5474396;26;20531;-48
2024/04/27 01:12:08;;;;;;;2.07;1.80;;;12.50;84.00;;;;;;5451206;26;20463;-48
2024/04/27 01:14:38;;;;;;;2.60;2.13;;;12.50;84.00;;;;;;5474141;26;20522;-48
2024/04/27 01:17:08;;;;;;;2.77;2.10;;;12.40;84.20;;;;;;5469407;26;20968;-49
2024/04/27 01:19:41;;;;;;;2.60;2.10;;;12.40;84.10;;;;;;5462862;26;20455;-49
2024/04/27 01:22:11;;;;;;;1.97;1.87;;;12.50;84.20;;;;;;5466270;26;20499;-49
2024/04/27 01:24:44;;;;;;;2.20;2.00;;;12.40;84.00;;;;;;5465207;26;20457;-48
2024/04/27 01:27:14;;;;;;;2.53;2.33;;;12.40;84.10;;;;;;5464954;26;20570;-49
2024/04/27 01:29:44;;;;;;;2.40;2.07;;;12.40;84.10;;;;;;5455979;26;20452;-47
2024/04/27 01:32:17;;;;;;;2.80;2.20;;;12.40;84.20;;;;;;5456955;26;20519;-47
2024/04/27 01:34:47;;;;;;;4.90;1.90;;;12.40;84.10;;;;;;5471580;26;20465;-49
2024/04/27 01:37:18;;;;;;;3.13;2.30;;;12.40;84.20;;;;;;5455258;26;20503;-47
2024/04/27 01:39:51;;;;;;;2.73;2.33;;;12.40;84.30;;;;;;5460010;26;20459;-47
2024/04/27 01:42:21;;;;;;;2.50;2.17;;;12.40;84.20;;;;;;5440910;26;20455;-48
2024/04/27 01:44:51;;;;;;;2.07;1.87;;;12.40;84.20;;;;;;5463880;26;20571;-48
2024/04/27 01:47:21;;;;;;;2.50;2.20;;;12.40;84.40;;;;;;5461294;26;20471;-48
2024/04/27 01:49:51;;;;;;;2.40;2.20;;;12.40;84.30;;;;;;5476257;26;20547;-48
2024/04/27 01:52:21;;;;;;;3.23;2.50;;;12.40;84.40;;;;;;5452363;26;20462;-48
2024/04/27 01:54:54;;;;;;;3.00;2.20;;;12.40;84.40;;;;;;5485608;26;20517;-48
2024/04/27 01:57:24;;;;;;;2.57;2.37;;;12.40;84.40;;;;;;5463708;26;20532;-48
2024/04/27 01:59:55;;;;;;;2.73;2.33;;;12.40;84.40;;;;;;5449914;26;20471;-47
2024/04/27 02:02:25;;;;;;;2.30;2.03;;;12.40;84.40;;;;;;5473474;26;20452;-47
2024/04/27 02:04:56;;;;;;;4.33;2.20;;;12.40;84.40;;;;;;5469089;26;21063;-48
2024/04/27 02:07:26;;;;;;;2.57;2.37;;;12.40;84.40;;;;;;5454398;26;20463;-48
2024/04/27 02:09:59;;;;;;;2.10;1.90;;;12.40;84.50;;;;;;5444353;26;20478;-48
2024/04/27 02:12:29;;;;;;;2.63;1.80;;;12.40;84.50;;;;;;5457934;26;20559;-48
2024/04/27 02:14:59;;;;;;;2.77;2.00;;;12.40;84.30;;;;;;5475473;26;20449;-49
2024/04/27 02:20:16;;;;;;;2.30;2.10;;;12.40;84.40;;;;;;5448708;26;20919;-47
2024/04/27 02:22:46;;;;;;;2.20;2.00;;;12.30;84.40;;;;;;5413064;26;20519;-48
2024/04/27 02:25:18;;;;;;;4.60;2.10;;;12.30;84.30;;;;;;5475015;26;21019;-49
2024/04/27 02:27:48;;;;;;;2.43;2.20;;;12.30;84.30;;;;;;5459322;26;20809;-47
2024/04/27 02:30:18;;;;;;;2.07;1.87;;;12.30;84.30;;;;;;5463556;26;20470;-48
2024/04/27 02:32:48;;;;;;;3.30;2.37;;;12.40;84.50;;;;;;5464762;26;20574;-47
2024/04/27 02:35:18;;;;;;;4.10;2.73;;;12.30;84.50;;;;;;5436545;26;20465;-48
2024/04/27 02:37:48;;;;;;;3.27;2.47;;;12.30;84.30;;;;;;5460762;26;20560;-48
2024/04/27 02:40:20;;;;;;;2.50;1.90;;;12.30;84.50;;;;;;5462602;26;20526;-48
2024/04/27 02:42:51;;;;;;;2.30;1.90;;;12.30;84.40;;;;;;5464466;26;20513;-48
2024/04/27 02:45:20;;;;;;;2.40;2.10;;;12.30;84.50;;;;;;5481786;26;20455;-48
2024/04/27 02:47:52;;;;;;;2.50;2.30;;;12.30;84.50;;;;;;5459079;26;21099;-48
2024/04/27 02:50:23;;;;;;;2.10;1.90;;;12.30;84.50;;;;;;5439902;26;21129;-48
2024/04/27 02:52:53;;;;;;;2.43;2.20;;;12.30;84.70;;;;;;5446382;26;20530;-47
2024/04/27 02:55:27;;;;;;;2.53;2.07;;;12.30;84.60;;;;;;5472118;26;20513;-48
2024/04/27 02:57:59;;;;;;;2.80;2.30;;;12.30;84.60;;;;;;5459544;26;20466;-49
2024/04/27 03:00:28;;;;;;;1.80;1.70;;;12.30;84.70;;;;;;5477215;25;20466;-48
2024/04/27 03:02:59;;;;;;;2.50;2.30;;;12.30;84.70;;;;;;5447769;26;20506;-48
2024/04/27 03:05:29;;;;;;;2.60;2.40;;;12.30;84.70;;;;;;5459967;26;20898;-47
2024/04/27 03:08:00;;;;;;;2.30;2.10;;;12.30;84.70;;;;;;5415741;26;20635;-47
2024/04/27 03:10:32;;;;;;;3.97;2.30;;;12.30;84.70;;;;;;5453253;26;20578;-48
2024/04/27 03:13:02;;;;;;;2.60;2.23;;;12.30;84.70;;;;;;5440635;26;21013;-48
2024/04/27 03:15:32;;;;;;;3.33;2.00;;;12.30;84.80;;;;;;5468559;26;20464;-49
2024/04/27 03:18:02;;;;;;;2.23;2.03;;;12.30;84.70;;;;;;5475055;26;20441;-48
2024/04/27 03:20:32;;;;;;;2.23;2.03;;;12.30;84.70;;;;;;5450069;26;20538;-47
2024/04/27 03:23:02;;;;;;;2.60;2.40;;;12.30;84.70;;;;;;5455899;26;20932;-48
2024/04/27 03:25:36;;;;;;;2.40;2.20;;;12.30;84.70;;;;;;5459905;26;20996;-49
2024/04/27 03:28:08;;;;;;;2.60;2.40;;;12.20;84.60;;;;;;5459091;26;20444;-49
2024/04/27 03:30:37;;;;;;;2.30;2.10;;;12.20;84.70;;;;;;5466245;26;20522;-48
2024/04/27 03:33:07;;;;;;;2.93;2.40;;;12.20;84.70;;;;;;5464173;26;20450;-48
2024/04/27 03:35:37;;;;;;;3.90;2.27;;;12.20;84.70;;;;;;5471628;26;20446;-47
2024/04/27 03:38:07;;;;;;;2.53;1.83;;;12.20;84.70;;;;;;5458248;26;21022;-48
2024/04/27 03:40:40;;;;;;;2.50;2.30;;;12.20;84.90;;;;;;5460798;26;20460;-47
2024/04/27 03:43:10;;;;;;;2.70;2.27;;;12.20;84.80;;;;;;5470069;26;20971;-48
2024/04/27 03:45:43;;;;;;;2.17;1.80;;;12.20;84.90;;;;;;5460522;26;20450;-48
2024/04/27 03:48:13;;;;;;;2.20;2.00;;;12.20;85.00;;;;;;5450545;26;21037;-49
2024/04/27 03:50:43;;;;;;;2.30;1.80;;;12.20;84.90;;;;;;5443912;26;20468;-48
2024/04/27 03:53:13;;;;;;;2.57;2.37;;;12.20;85.10;;;;;;5469159;26;20469;-47
2024/04/27 03:55:45;;;;;;;3.27;2.40;;;12.20;85.10;;;;;;5454845;26;20451;-48
2024/04/27 03:58:15;;;;;;;2.37;2.00;;;12.20;85.00;;;;;;5460100;26;20466;-47
2024/04/27 04:00:45;;;;;;;2.57;2.37;;;12.20;85.30;;;;;;5469968;26;20466;-48
2024/04/27 04:03:15;;;;;;;3.20;2.10;;;12.20;85.10;;;;;;5463824;26;20505;-48
2024/04/27 04:05:47;;;;;;;1.90;1.57;;;12.20;85.30;;;;;;5405833;26;20556;-47
2024/04/27 04:08:17;;;;;;;1.90;1.70;;;12.20;85.20;;;;;;5466213;26;20471;-48
2024/04/27 04:10:51;;;;;;;2.00;1.80;;;12.20;85.30;;;;;;5467287;26;20483;-48
2024/04/27 04:13:26;;;;;;;5.07;2.03;;;12.20;85.20;;;;;;5455746;26;20453;-49
2024/04/27 04:16:01;;;;;;;2.50;2.30;;;12.20;85.40;;;;;;5465517;26;20564;-47
2024/04/27 04:18:33;;;;;;;2.80;2.20;;;12.20;85.20;;;;;;5465396;26;20509;-48
2024/04/27 04:21:04;;;;;;;2.30;2.10;;;12.20;85.20;;;;;;5449577;26;20859;-48
2024/04/27 04:23:35;;;;;;;2.23;1.93;;;12.20;85.40;;;;;;5464220;26;20528;-48
2024/04/27 04:26:10;;;;;;;2.93;2.00;;;12.20;85.40;;;;;;5459524;26;20578;-48
2024/04/27 04:28:43;;;;;;;2.43;2.17;;;12.20;85.40;;;;;;5466367;26;20783;-48
2024/04/27 04:31:15;;;;;;;1.90;1.77;;;12.20;85.40;;;;;;5476807;26;20525;-48
2024/04/27 04:33:45;;;;;;;2.47;2.27;;;12.20;85.50;;;;;;5417955;26;20450;-47
2024/04/27 04:36:17;;;;;;;2.33;2.10;;;12.20;85.50;;;;;;5441458;26;20471;-48
2024/04/27 04:38:48;;;;;;;2.00;1.70;;;12.20;85.40;;;;;;5459742;26;20444;-49
2024/04/27 04:41:22;;;;;;;3.10;2.33;;;12.10;85.40;;;;;;5439580;26;20514;-48
2024/04/27 04:43:52;;;;;;;2.40;2.20;;;12.10;85.30;;;;;;5446165;26;20528;-47
2024/04/27 04:46:23;;;;;;;3.03;2.20;;;12.10;85.30;;;;;;5413310;26;21031;-48
2024/04/27 04:48:54;;;;;;;3.13;2.23;;;12.10;85.30;;;;;;5442793;26;20568;-48
2024/04/27 04:51:23;;;;;;;2.80;2.00;;;12.10;85.40;;;;;;5455193;26;21168;-49
2024/04/27 04:53:54;;;;;;;2.90;2.43;;;12.10;85.30;;;;;;5458542;26;20529;-49
2024/04/27 04:56:27;;;;;;;2.20;2.00;;;12.10;85.40;;;;;;5456757;26;20513;-48
2024/04/27 04:58:57;;;;;;;2.10;1.90;;;12.10;85.30;;;;;;5441661;26;20462;-48
2024/04/27 05:01:27;;;;;;;2.47;2.27;;;12.10;85.40;;;;;;5455265;26;20470;-48
2024/04/27 05:03:58;;;;;;;2.13;1.93;;;12.10;85.30;;;;;;5456029;26;20478;-48
2024/04/27 05:06:27;;;;;;;2.60;2.13;;;12.10;85.30;;;;;;5463789;26;20901;-50
2024/04/27 05:08:57;;;;;;;2.00;1.60;;;12.10;85.30;;;;;;5448899;26;20913;-47
2024/04/27 05:11:30;;;;;;;2.27;2.07;;;12.10;85.30;;;;;;5445179;26;20570;-48
2024/04/27 05:14:00;;;;;;;3.13;2.30;;;12.10;85.40;;;;;;5477631;26;20450;-51
2024/04/27 05:16:30;;;;;;;2.87;2.10;;;12.10;85.40;;;;;;5475216;26;20540;-48
2024/04/27 05:19:00;;;;;;;2.10;1.90;;;12.20;85.40;;;;;;5476470;26;20465;-48
2024/04/27 05:21:31;;;;;;;2.27;2.07;;;12.10;85.30;;;;;;5451208;26;20877;-49
2024/04/27 05:24:01;;;;;;;2.03;1.83;;;12.20;85.40;;;;;;5458788;26;20469;-48
2024/04/27 05:26:34;;;;;;;1.60;1.50;;;12.20;85.40;;;;;;5438093;26;20469;-48
2024/04/27 05:29:04;;;;;;;2.00;1.90;;;12.20;85.40;;;;;;5455861;26;20456;-47
2024/04/27 05:31:34;;;;;;;2.50;1.97;;;12.20;85.40;;;;;;5458872;26;20466;-47
2024/04/27 05:34:05;;;;;;;3.33;1.57;;;12.20;85.40;;;;;;5447915;26;21058;-47
2024/04/27 05:36:34;;;;;;;2.13;1.70;;;12.20;85.40;;;;;;5454102;26;20879;-47
2024/04/27 05:39:04;;;;;;;1.87;1.70;;;12.20;85.40;;;;;;5459461;26;21100;-47
2024/04/27 05:41:38;;;;;;;2.27;1.83;;;12.20;85.40;;;;;;5462175;26;20458;-47
2024/04/27 05:44:08;;;;;;;2.13;1.97;;;12.20;85.40;;;;;;5459109;26;20566;-47
2024/04/27 05:46:38;;;;;;;3.23;2.17;;;12.20;85.40;;;;;;5470592;26;21081;-47
2024/04/27 05:49:08;;;;;;;2.33;2.13;;;12.20;85.40;;;;;;5460940;26;20920;-47
2024/04/27 05:51:38;;;;;;;1.90;1.70;;;12.20;85.40;;;;;;5472841;26;20505;-47
2024/04/27 05:54:08;;;;;;;2.67;2.10;;;12.20;85.40;;;;;;5468443;26;20454;-47
2024/04/27 05:56:40;;;;;;;2.80;1.83;;;12.20;85.40;;;;;;5471932;26;20563;-47
2024/04/27 05:59:10;;;;;;;1.93;1.73;;;12.20;85.40;;;;;;5451738;26;20465;-47
2024/04/27 06:01:40;;;;;;;3.10;1.80;;;12.20;85.50;;;;;;5471756;26;21150;-47
2024/04/27 06:04:10;;;;;;;1.83;1.47;;;12.20;85.40;;;;;;5456276;26;20521;-47
2024/04/27 06:06:40;;;;;;;1.87;1.77;;;12.10;85.40;;;;;;5463001;26;20463;-47
2024/04/27 06:09:10;;;;;;;2.30;2.10;;;12.10;85.30;;;;;;5446036;26;20457;-47
2024/04/27 06:11:43;;;;;;;2.50;1.77;;;12.20;85.40;;;;;;5454699;26;20459;-47
2024/04/27 06:14:14;;;;;;;2.20;2.00;;;12.10;85.30;;;;;;5448534;26;20795;-47
2024/04/27 06:16:44;;;;;;;2.27;2.07;;;12.10;85.40;;;;;;5464404;26;20578;-47
2024/04/27 06:19:14;;;;;;;1.83;1.50;;;12.10;85.70;;;;;;5435434;26;20515;-47
2024/04/27 06:21:45;;;;;;;2.10;1.90;;;12.10;85.70;;;;;;5465159;26;20453;-47
2024/04/27 06:24:15;;;;;;;3.07;2.20;;;12.10;86.00;;;;;;5474817;26;20454;-47
2024/04/27 06:26:48;;;;;;;2.37;1.87;;;12.10;86.00;;;;;;5457223;26;20448;-47
2024/04/27 06:29:17;;;;;;;1.90;1.63;;;12.10;86.00;;;;;;5466729;26;20430;-47
2024/04/27 06:31:48;;;;;;;1.87;1.77;;;12.10;86.10;;;;;;5442821;26;21014;-47
2024/04/27 06:34:19;;;;;;;2.20;2.00;;;12.10;86.20;;;;;;5458187;26;20513;-47
2024/04/27 06:36:49;;;;;;;2.10;1.87;;;12.10;86.40;;;;;;5464053;26;21027;-47
2024/04/27 06:39:19;;;;;;;3.37;1.63;;;12.10;86.40;;;;;;5439895;26;20469;-48
2024/04/27 06:41:52;;;;;;;2.33;1.87;;;12.10;86.60;;;;;;5456791;26;20514;-47
2024/04/27 06:44:22;;;;;;;2.40;1.80;;;12.10;86.80;;;;;;5451795;26;20478;-47
2024/04/27 06:46:53;;;;;;;3.10;1.57;;;12.10;86.70;;;;;;5454430;26;20898;-47
2024/04/27 06:49:23;;;;;;;2.90;2.30;;;12.10;86.70;;;;;;5408786;26;20845;-47
2024/04/27 06:51:57;;;;;;;1.90;1.70;;;12.10;86.80;;;;;;5440528;26;20459;-47
2024/04/27 06:54:28;;;;;;;2.60;1.80;;;12.10;86.90;;;;;;5451733;26;20467;-47
2024/04/27 06:57:01;;;;;;;2.30;2.07;;;12.10;87.30;;;;;;5478952;26;20497;-47
2024/04/27 06:59:31;;;;;;;1.90;1.60;;;12.10;87.60;;;;;;5450497;26;20579;-46
2024/04/27 07:02:02;;;;;;;1.83;1.63;;;12.10;87.60;;;;;;5435727;26;20533;-47
2024/04/27 07:04:36;;;;;;;4.00;2.10;;;12.10;87.80;;;;;;5461509;26;20526;-47
2024/04/27 07:07:08;;;;;;;2.13;1.90;;;12.10;88.10;;;;;;5471724;26;20553;-47
2024/04/27 07:09:39;;;;;;;2.37;2.00;;;12.00;87.90;;;;;;5457969;26;20454;-47
2024/04/27 07:12:13;;;;;;;2.37;2.00;;;12.10;88.30;;;;;;5469457;26;20528;-47
2024/04/27 07:14:44;;;;;;;2.20;1.93;;;12.10;88.70;;;;;;5440359;26;20446;-47
2024/04/27 07:17:14;;;;;;;2.13;1.93;;;12.10;88.50;;;;;;5458783;26;20511;-47
2024/04/27 07:19:44;;;;;;;5.90;1.97;;;12.00;88.30;;;;;;5457171;26;20450;-46
2024/04/27 07:22:15;;;;;;;2.20;1.90;;;12.00;88.30;;;;;;5477041;26;20526;-47
2024/04/27 07:25:07;;;;;;;2.97;2.00;;;12.10;88.30;;;;;;5457782;26;20457;-47
2024/04/27 07:27:39;;;;;;;2.67;1.70;;;12.00;88.30;;;;;;5457171;26;20465;-47
2024/04/27 07:30:11;;;;;;;1.90;1.60;;;12.00;88.30;;;;;;5462509;26;20854;-47
2024/04/27 07:32:42;;;;;;;2.23;1.83;;;12.10;88.20;;;;;;5471060;26;20454;-47
2024/04/27 07:35:13;;;;;;;1.90;1.70;;;12.00;88.00;;;;;;5482786;26;20455;-48
2024/04/27 07:37:43;;;;;;;2.57;2.00;;;12.10;87.80;;;;;;5442047;26;20451;-49
2024/04/27 07:40:13;;;;;;;4.73;2.07;;;12.10;87.90;;;;;;5448652;26;20474;-48
2024/04/27 07:42:47;;;;;;;1.80;1.60;;;12.10;87.90;;;;;;5453827;26;20470;-47
2024/04/27 07:45:17;;;;;;;1.80;1.53;;;12.00;87.80;;;;;;5470018;26;20532;-48
2024/04/27 07:47:47;;;;;;;2.00;1.80;;;12.10;87.80;;;;;;5462170;26;20450;-47
2024/04/27 07:50:19;;;;;;;1.97;1.80;;;12.10;87.90;;;;;;5464408;26;20530;-49
2024/04/27 07:52:49;;;;;;;1.73;1.53;;;12.10;87.80;;;;;;5463489;26;20796;-48
2024/04/27 07:55:19;;;;;;;2.63;2.10;;;12.10;87.80;;;;;;5460621;26;20514;-49
2024/04/27 07:57:51;;;;;;;2.33;2.00;;;12.00;88.00;;;;;;5470326;26;20791;-48
2024/04/27 08:00:21;;;;;;;2.23;1.70;;;12.10;88.20;;;;;;5468613;26;20461;-48
2024/04/27 08:02:53;;;;;;;2.83;1.70;;;12.10;88.30;;;;;;5476493;26;20454;-48
2024/04/27 08:05:23;;;;;;;1.87;1.67;;;12.10;88.20;;;;;;5461440;26;20540;-49
2024/04/27 08:07:53;;;;;;;2.67;1.87;;;12.00;88.00;;;;;;5447279;26;20465;-49
2024/04/27 08:10:23;;;;;;;2.30;2.10;;;12.00;88.50;;;;;;5416256;26;20475;-49
2024/04/27 08:12:56;;;;;;;1.87;1.77;;;12.00;88.10;;;;;;5448066;26;20462;-48
2024/04/27 08:15:26;;;;;;;1.93;1.83;;;12.10;88.50;;;;;;5478533;26;20581;-48
2024/04/27 08:17:55;;;;;;;2.50;2.20;;;12.00;88.80;;;;;;5458260;26;20469;-47
2024/04/27 08:20:28;;;;;;;2.23;1.77;;;12.00;88.70;;;;;;5468337;25;21038;-47
2024/04/27 08:23:04;;;;;;;2.13;1.87;;;12.00;88.80;;;;;;5478049;25;21056;-49
2024/04/27 08:25:41;;;;;;;5.90;1.80;;;12.10;90.80;;;;;;5466401;25;20509;-48
2024/04/27 08:28:15;;;;;;;2.60;1.97;;;12.10;90.70;;;;;;5460563;25;20443;-48
2024/04/27 08:30:45;;;;;;;2.17;1.70;;;12.10;90.60;;;;;;5454783;25;20467;-48
2024/04/27 08:33:16;;;;;;;1.97;1.77;;;12.10;90.50;;;;;;5473741;25;20509;-49
2024/04/27 08:35:46;;;;;;;2.20;1.90;;;12.10;90.40;;;;;;5460610;25;20518;-48
2024/04/27 08:38:17;;;;;;;2.20;2.00;;;12.10;90.50;;;;;;5450245;26;20466;-48
2024/04/27 08:40:47;;;;;;;3.20;1.77;;;12.10;90.30;;;;;;5461316;25;20459;-48
2024/04/27 08:43:24;;;;;;;2.30;1.50;;;12.10;90.30;;;;;;5473287;25;20576;-47
2024/04/27 08:45:54;;;;;;;3.43;2.30;;;12.10;90.40;;;;;;5454451;25;20471;-47
2024/04/27 08:48:25;;;;;;;2.50;1.80;;;12.10;90.20;;;;;;5464002;25;20508;-48
2024/04/27 08:50:58;;;;;;;2.43;1.60;;;12.20;90.00;;;;;;5464481;25;21057;-48
2024/04/27 08:53:28;;;;;;;1.80;1.60;;;12.20;90.00;;;;;;5467517;25;20567;-48
2024/04/27 08:56:03;;;;;;;1.90;1.63;;;12.30;89.30;;;;;;5452109;25;20522;-48
2024/04/27 08:58:38;;;;;;;2.20;2.00;;;12.30;89.40;;;;;;5463399;25;20512;-49
2024/04/27 09:01:08;;;;;;;1.50;1.30;;;12.30;89.00;;;;;;5471182;25;20529;-48
2024/04/27 09:03:38;;;;;;;1.53;1.43;;;12.30;88.80;;;;;;5457983;25;20808;-48
2024/04/27 09:06:08;;;;;;;2.60;1.60;;;12.30;88.70;;;;;;5451566;25;20455;-48
2024/04/27 09:08:38;;;;;;;4.43;2.23;;;12.30;88.70;;;;;;5456455;25;20474;-49
2024/04/27 09:11:09;;;;;;;2.13;1.70;;;12.30;88.90;;;;;;5431020;26;20513;-49
2024/04/27 09:13:41;;;;;;;3.20;2.17;;;12.30;88.40;;;;;;5461675;25;21082;-48
2024/04/27 09:16:17;;;;;;;1.70;1.50;;;12.30;88.50;;;;;;5468185;26;20521;-47
2024/04/27 09:18:52;;;;;;;1.83;1.53;;;12.30;88.40;;;;;;5477238;25;20499;-48
2024/04/27 09:21:24;;;;;;;2.50;1.87;;;12.30;88.40;;;;;;5469750;25;20449;-48
2024/04/27 09:23:54;;;;;;;1.63;1.50;;;12.30;88.70;;;;;;5458565;26;20451;-48
2024/04/27 09:26:24;;;;;;;4.20;1.33;;;12.40;88.80;;;;;;5467409;26;20461;-48
2024/04/27 09:28:56;;;;;;;1.90;1.33;;;12.40;88.20;;;;;;5460776;26;20520;-48
2024/04/27 09:31:26;;;;;;;2.10;1.57;;;12.40;87.90;;;;;;5455519;25;20464;-48
2024/04/27 09:33:56;;;;;;;2.20;2.00;;;12.30;87.70;;;;;;5467230;25;20572;-48
2024/04/27 09:36:28;;;;;;;3.33;1.67;;;12.30;87.70;;;;;;5455647;25;20479;-48
2024/04/27 09:39:15;;;;;;;1.97;1.50;;;12.30;87.50;;;;;;5451263;25;20460;-47
2024/04/27 09:41:47;;;;;;;1.40;1.30;;;12.30;87.50;;;;;;5464260;25;20513;-47
2024/04/27 09:44:23;;;;;;;3.70;1.63;;;12.30;87.50;;;;;;5465648;25;20514;-48
2024/04/27 09:46:55;;;;;;;2.10;1.40;;;12.30;87.30;;;;;;5455563;25;20466;-47
2024/04/27 09:49:30;;;;;;;2.20;1.33;;;12.30;87.20;;;;;;5453220;26;20469;-48
2024/04/27 09:52:01;;;;;;;2.10;1.90;;;12.30;87.60;;;;;;5445785;26;20857;-46
2024/04/27 09:54:31;;;;;;;1.60;1.50;;;12.30;88.50;;;;;;5449072;26;20447;-48
2024/04/27 09:57:01;;;;;;;2.77;1.13;;;12.30;87.80;;;;;;5460015;26;20535;-48
2024/04/27 09:59:34;;;;;;;1.60;1.50;;;12.30;88.40;;;;;;5451739;25;20464;-47
2024/04/27 10:02:04;;;;;;;2.07;1.60;;;12.30;88.10;;;;;;5446391;26;20522;-47
2024/04/27 10:04:35;;;;;;;1.60;1.43;;;12.30;88.80;;;;;;5459670;25;20545;-48
2024/04/27 10:07:06;;;;;;;2.57;1.80;;;12.30;89.20;;;;;;5446243;26;20464;-48
2024/04/27 10:09:39;;;;;;;2.37;1.43;;;12.40;89.20;;;;;;5446918;26;20484;-48
2024/04/27 10:12:18;;;;;;;2.70;1.40;;;12.30;88.10;;;;;;5455353;25;20461;-47
2024/04/27 10:14:55;;;;;;;1.67;1.40;;;12.30;88.60;;;;;;5444034;25;20536;-48
2024/04/27 10:17:32;;;;;;;2.00;1.60;;;12.30;88.40;;;;;;5462238;25;20507;-48
2024/04/27 10:20:03;;;;;;;1.70;1.33;;;12.40;88.20;;;;;;5446461;26;20911;-47
2024/04/27 10:22:34;;;;;;;1.60;1.40;;;12.30;88.00;;;;;;5415866;26;20527;-47
2024/04/27 10:25:03;;;;;;;1.50;1.40;;;12.40;88.20;;;;;;5457643;25;20858;-47
2024/04/27 10:27:35;;;;;;;3.30;1.60;;;12.40;88.30;;;;;;5446387;26;20451;-48
2024/04/27 10:30:18;;;;;;;1.70;1.60;;;12.40;88.50;;;;;;5434998;26;20488;-50
2024/04/27 10:32:49;;;;;;;1.90;1.50;;;12.40;88.00;;;;;;5457831;25;21035;-47
2024/04/27 10:35:20;;;;;;;1.77;1.40;;;12.40;87.90;;;;;;5457513;25;20465;-48
2024/04/27 10:37:51;;;;;;;2.00;1.57;;;12.40;88.90;;;;;;5471708;25;20555;-49
2024/04/27 10:40:22;;;;;;;1.63;1.40;;;12.40;88.40;;;;;;5456883;25;20522;-48
2024/04/27 10:42:52;;;;;;;1.73;1.40;;;12.40;88.10;;;;;;5446354;25;20451;-47
2024/04/27 10:45:26;;;;;;;3.37;1.20;;;12.50;87.60;;;;;;5440561;26;20478;-47
2024/04/27 10:47:56;;;;;;;1.70;1.50;;;12.40;87.60;;;;;;5448446;25;20519;-47
2024/04/27 10:50:26;;;;;;;1.60;1.20;;;12.40;87.40;;;;;;5440709;26;20457;-47
2024/04/27 10:52:57;;;;;;;1.57;1.37;;;12.50;87.80;;;;;;5436751;25;20455;-47
2024/04/27 10:55:27;;;;;;;1.70;1.40;;;12.50;87.40;;;;;;5461459;26;20458;-46
2024/04/27 10:57:58;;;;;;;1.70;1.33;;;12.50;87.70;;;;;;5456965;25;20503;-47
2024/04/27 11:00:32;;;;;;;1.40;1.30;;;12.50;87.90;;;;;;5455324;25;20588;-47
2024/04/27 11:03:02;;;;;;;2.43;1.67;;;12.50;88.00;;;;;;5456465;25;20466;-46
2024/04/27 11:05:34;;;;;;;1.50;1.40;;;12.50;88.00;;;;;;5458277;25;20472;-46
2024/04/27 11:08:04;;;;;;;1.80;1.50;;;12.50;87.80;;;;;;5436633;26;20467;-47
2024/04/27 11:10:34;;;;;;;1.50;1.30;;;12.50;87.50;;;;;;5445097;26;20534;-47
2024/04/27 11:13:05;;;;;;;1.60;1.33;;;12.50;87.90;;;;;;5439905;26;21007;-46
2024/04/27 11:15:38;;;;;;;2.37;1.40;;;12.50;87.20;;;;;;5444922;26;20467;-46
2024/04/27 11:18:08;;;;;;;2.17;2.00;;;12.50;87.20;;;;;;5443110;26;20458;-46
2024/04/27 11:20:38;;;;;;;2.17;1.53;;;12.50;87.00;;;;;;5443795;26;21287;-46
2024/04/27 11:23:09;;;;;;;1.40;1.30;;;12.50;86.80;;;;;;5453646;25;20584;-46
2024/04/27 11:25:38;;;;;;;1.40;1.30;;;12.50;86.70;;;;;;5443286;26;20633;-47
2024/04/27 11:28:08;;;;;;;1.47;1.20;;;12.50;86.70;;;;;;5447321;26;20450;-47
2024/04/27 11:30:41;;;;;;;2.50;1.33;;;12.50;87.00;;;;;;5453523;25;20458;-47
2024/04/27 11:33:11;;;;;;;1.90;1.40;;;12.50;87.00;;;;;;5454060;25;20482;-46
2024/04/27 11:35:43;;;;;;;4.60;1.33;;;12.50;86.50;;;;;;5412989;26;20444;-46
2024/04/27 11:38:13;;;;;;;1.47;1.03;;;12.60;86.40;;;;;;5453139;26;20447;-47
2024/04/27 11:40:42;;;;;;;2.20;1.40;;;12.60;86.30;;;;;;5444050;26;21822;-47
2024/04/27 11:43:15;;;;;;;2.00;1.30;;;12.60;86.00;;;;;;5440059;26;20464;-46
2024/04/27 11:45:48;;;;;;;1.60;1.30;;;12.60;85.80;;;;;;5453037;25;20509;-47
2024/04/27 11:48:18;;;;;;;1.83;1.43;;;12.60;85.90;;;;;;5448382;26;20508;-46
2024/04/27 11:50:48;;;;;;;2.50;1.13;;;12.60;85.80;;;;;;5445472;26;20516;-47
2024/04/27 11:53:18;;;;;;;1.40;1.20;;;12.70;85.90;;;;;;5442873;26;20458;-47
2024/04/27 11:55:49;;;;;;;3.80;1.63;;;12.80;86.10;;;;;;5450086;25;20465;-46
2024/04/27 11:58:19;;;;;;;1.70;1.20;;;12.80;86.00;;;;;;5442632;26;20465;-47
2024/04/27 12:00:51;;;;;;;1.30;1.10;;;12.70;85.90;;;;;;5444099;25;20584;-46
2024/04/27 12:03:21;;;;;;;1.60;1.33;;;12.80;85.40;;;;;;5443804;26;20825;-47
2024/04/27 12:05:51;;;;;;;1.40;1.13;;;12.70;85.50;;;;;;5504778;25;21016;-47
2024/04/27 12:08:22;;;;;;;1.63;1.43;;;12.70;85.20;;;;;;5454222;25;21035;-47
2024/04/27 12:10:52;;;;;;;2.40;1.37;;;12.80;85.20;;;;;;5465268;25;20459;-47
2024/04/27 12:13:22;;;;;;;2.10;1.00;;;12.80;85.50;;;;;;5442850;25;21014;-47
2024/04/27 12:15:54;;;;;;;1.30;1.10;;;12.70;85.50;;;;;;5430735;26;20443;-47
2024/04/27 12:18:25;;;;;;;2.37;1.37;;;12.70;85.60;;;;;;5442268;26;20471;-47
2024/04/27 12:20:54;;;;;;;1.40;1.03;;;12.70;85.80;;;;;;5470887;25;20467;-47
2024/04/27 12:23:24;;;;;;;1.67;1.23;;;12.70;85.80;;;;;;5453607;25;20465;-46
2024/04/27 12:25:54;;;;;;;2.43;1.40;;;12.70;85.90;;;;;;5449296;25;20517;-46
2024/04/27 12:28:24;;;;;;;1.60;1.13;;;12.70;85.70;;;;;;5443237;25;20528;-47
2024/04/27 12:31:00;;;;;;;1.67;1.20;;;12.80;85.80;;;;;;5450792;25;20468;-47
2024/04/27 12:33:32;;;;;;;1.20;1.07;;;12.70;85.70;;;;;;5449369;25;20462;-47
2024/04/27 12:36:02;;;;;;;1.40;1.30;;;12.70;85.70;;;;;;5447011;25;20503;-48
2024/04/27 12:38:32;;;;;;;2.03;1.17;;;12.80;85.80;;;;;;5447418;25;20463;-48
2024/04/27 12:41:02;;;;;;;1.77;1.20;;;12.80;85.70;;;;;;5452661;25;20532;-47
2024/04/27 12:43:32;;;;;;;2.60;1.33;;;12.80;85.70;;;;;;5447321;25;20600;-47
2024/04/27 12:46:05;;;;;;;1.30;1.07;;;12.80;85.70;;;;;;5452030;25;20460;-47
2024/04/27 12:48:35;;;;;;;1.30;1.20;;;12.80;85.70;;;;;;5450468;25;20821;-47
2024/04/27 12:51:06;;;;;;;2.47;1.13;;;12.80;85.70;;;;;;5461502;25;20581;-48
2024/04/27 12:53:36;;;;;;;1.30;1.20;;;12.80;85.40;;;;;;5453091;25;20591;-47
2024/04/27 12:56:06;;;;;;;2.20;1.07;;;12.90;85.10;;;;;;5448180;25;20573;-49
2024/04/27 12:58:36;;;;;;;1.97;1.20;;;12.90;85.10;;;;;;5449912;25;20451;-48
2024/04/27 13:01:09;;;;;;;1.90;1.10;;;12.90;85.10;;;;;;5444267;26;20497;-48
2024/04/27 13:03:38;;;;;;;1.60;1.20;;;12.90;85.20;;;;;;5447511;25;20523;-48
2024/04/27 13:06:09;;;;;;;1.70;1.60;;;12.90;85.20;;;;;;5444761;25;20466;-47
2024/04/27 13:08:39;;;;;;;2.20;1.10;;;12.90;85.00;;;;;;5455069;25;20515;-47
2024/04/27 13:11:09;;;;;;;1.80;1.10;;;12.90;85.20;;;;;;5446302;25;20465;-48